Time;durP1;ratioP1;P1;durP2;ratioP2;P2;SDS_P1;SDS_P2;PMS_P1;PMS_P2;Temp;Humidity;BMP_temperature;BMP_pressure;BME280_temperature;BME280_humidity;BME280_pressure;Samples;Min_cycle;Max_cycle;Signal;HPM_P1;HPM_P2
2021/12/10 00:01:38;;;;;;;2.15;0.60;;;18.10;89.60;;;;;;5088244;28;20718;-86
2021/12/10 00:04:06;;;;;;;1.42;0.60;;;17.10;94.60;;;;;;5090521;28;20465;-78
2021/12/10 00:06:56;;;;;;;0.60;0.35;;;16.10;99.70;;;;;;5088929;28;20373;-76
2021/12/10 00:09:31;;;;;;;0.33;0.30;;;15.60;99.90;;;;;;5089096;28;20399;-85
2021/12/10 00:12:11;;;;;;;0.50;0.40;;;15.60;99.00;;;;;;5089384;28;20912;-75
2021/12/10 00:14:39;;;;;;;0.73;0.50;;;15.60;99.90;;;;;;5089239;28;20383;-87
2021/12/10 00:17:10;;;;;;;1.10;0.50;;;15.30;99.90;;;;;;5089242;28;20441;-82
2021/12/10 00:19:45;;;;;;;2.55;1.10;;;14.90;99.90;;;;;;5089246;28;20368;-83
2021/12/10 00:22:22;;;;;;;2.60;1.40;;;14.60;99.90;;;;;;5088877;28;20375;-84
2021/12/10 00:24:52;;;;;;;4.70;1.48;;;14.50;99.90;;;;;;5089356;28;20361;-81
2021/12/10 00:27:32;;;;;;;2.20;0.90;;;14.40;99.90;;;;;;5089305;28;20391;-86
2021/12/10 00:30:08;;;;;;;1.80;0.80;;;14.40;99.90;;;;;;5095923;28;20372;-85
2021/12/10 00:32:40;;;;;;;4.25;0.82;;;14.40;99.90;;;;;;5104193;28;20493;-84
2021/12/10 00:35:27;;;;;;;2.38;0.95;;;14.30;99.90;;;;;;5099811;28;20368;-78
2021/12/10 00:37:54;;;;;;;1.65;0.73;;;14.30;99.90;;;;;;5097443;28;20450;-78
2021/12/10 00:40:24;;;;;;;1.00;0.73;;;14.10;99.90;;;;;;5088825;28;20383;-84
2021/12/10 00:42:52;;;;;;;2.72;0.90;;;14.00;99.90;;;;;;5088429;28;20357;-84
2021/12/10 00:45:21;;;;;;;3.53;0.90;;;13.90;99.90;;;;;;5088479;28;20376;-85
2021/12/10 00:47:49;;;;;;;1.20;0.67;;;13.70;99.90;;;;;;5086819;28;20880;-86
2021/12/10 00:50:19;;;;;;;3.78;1.15;;;13.60;99.90;;;;;;5086728;28;20462;-81
2021/12/10 00:52:48;;;;;;;1.87;0.90;;;13.50;99.90;;;;;;5088474;28;20356;-84
2021/12/10 00:55:15;;;;;;;1.30;0.80;;;13.50;99.90;;;;;;5088132;28;20390;-86
2021/12/10 00:57:43;;;;;;;1.50;0.70;;;13.50;99.90;;;;;;5088357;28;20455;-84
2021/12/10 01:00:16;;;;;;;3.53;1.10;;;13.40;99.90;;;;;;5088079;28;20379;-87
2021/12/10 01:02:44;;;;;;;1.23;0.90;;;13.40;99.90;;;;;;5088549;28;20369;-79
2021/12/10 01:05:12;;;;;;;2.33;0.85;;;13.40;99.90;;;;;;5089095;28;20413;-83
2021/12/10 01:07:40;;;;;;;1.30;0.88;;;13.30;99.90;;;;;;5088127;28;20396;-81
2021/12/10 01:10:29;;;;;;;2.83;1.10;;;13.40;99.90;;;;;;5089122;28;20488;-77
2021/12/10 01:12:59;;;;;;;6.05;1.90;;;13.40;99.90;;;;;;5090825;28;20368;-84
2021/12/10 01:15:44;;;;;;;3.63;1.60;;;13.50;99.90;;;;;;5092719;28;20402;-82
2021/12/10 01:23:54;;;;;;;7.68;2.20;;;13.50;99.90;;;;;;5092103;28;20482;-77
2021/12/10 01:29:21;;;;;;;4.93;2.30;;;13.50;99.90;;;;;;5091846;28;20465;-82
2021/12/10 01:31:48;;;;;;;6.68;2.08;;;13.60;99.90;;;;;;5091727;28;20479;-81
2021/12/10 01:34:16;;;;;;;2.63;1.52;;;13.60;99.90;;;;;;5091587;28;20381;-78
2021/12/10 01:36:43;;;;;;;2.33;1.40;;;13.70;99.90;;;;;;5095686;28;20364;-77
2021/12/10 01:39:16;;;;;;;2.95;1.80;;;13.80;99.90;;;;;;5091697;28;20837;-81
2021/12/10 01:41:53;;;;;;;2.10;1.40;;;13.90;99.90;;;;;;5095009;28;20470;-79
2021/12/10 01:44:28;;;;;;;1.77;1.45;;;14.20;99.90;;;;;;5091447;28;20365;-82
2021/12/10 01:47:00;;;;;;;2.97;1.98;;;14.20;99.90;;;;;;5090043;28;20427;-78
2021/12/10 01:49:27;;;;;;;3.53;2.80;;;14.40;99.90;;;;;;5091183;28;20393;-81
2021/12/10 01:51:58;;;;;;;2.57;1.60;;;14.80;99.90;;;;;;5091460;28;20400;-81
2021/12/10 01:54:31;;;;;;;3.33;1.65;;;15.20;99.90;;;;;;5091697;28;20456;-81
2021/12/10 01:57:02;;;;;;;1.80;1.42;;;15.60;99.90;;;;;;5091129;28;20759;-84
2021/12/10 01:59:33;;;;;;;2.78;1.55;;;16.00;99.90;;;;;;5091077;28;20369;-81
2021/12/10 02:02:11;;;;;;;2.03;1.30;;;16.30;99.90;;;;;;5091152;28;20452;-82
2021/12/10 02:04:40;;;;;;;2.53;1.35;;;16.50;99.90;;;;;;5091326;28;20831;-81
2021/12/10 02:07:10;;;;;;;2.92;1.20;;;16.60;99.90;;;;;;5090956;28;20375;-82
2021/12/10 02:09:37;;;;;;;3.50;1.10;;;16.70;99.90;;;;;;5091278;28;20396;-82
2021/12/10 02:12:05;;;;;;;1.50;1.10;;;16.60;99.90;;;;;;5091173;28;20368;-85
2021/12/10 02:14:33;;;;;;;1.70;1.02;;;16.40;99.90;;;;;;5094799;28;20851;-82
2021/12/10 02:17:00;;;;;;;1.90;1.10;;;16.40;99.90;;;;;;5091084;28;20836;-85
2021/12/10 02:19:28;;;;;;;2.00;0.95;;;16.70;99.90;;;;;;5091188;28;20372;-84
2021/12/10 02:21:58;;;;;;;1.55;0.85;;;17.30;99.90;;;;;;5092857;28;20375;-89
2021/12/10 02:24:25;;;;;;;1.13;0.73;;;17.90;99.90;;;;;;5091143;28;20381;-89
2021/12/10 02:26:56;;;;;;;1.60;1.00;;;18.20;99.90;;;;;;5091473;28;20379;-85
2021/12/10 02:29:27;;;;;;;6.72;1.00;;;18.30;99.90;;;;;;5089399;28;20403;-81
2021/12/10 02:31:54;;;;;;;3.78;1.10;;;18.00;99.90;;;;;;5090445;28;20365;-84
2021/12/10 02:34:23;;;;;;;2.08;1.00;;;17.80;99.90;;;;;;5090638;28;20368;-80
2021/12/10 02:36:51;;;;;;;1.93;0.87;;;17.60;99.90;;;;;;5090538;28;20881;-82
2021/12/10 02:39:22;;;;;;;1.73;0.80;;;17.50;99.90;;;;;;5090734;28;20392;-85
2021/12/10 02:41:50;;;;;;;1.17;0.80;;;17.30;99.90;;;;;;5091166;28;20376;-81
2021/12/10 02:44:20;;;;;;;1.10;0.70;;;17.20;99.90;;;;;;5090756;28;20373;-85
2021/12/10 02:46:48;;;;;;;1.88;0.70;;;17.20;99.90;;;;;;5090899;28;20362;-83
2021/12/10 02:49:16;;;;;;;2.47;0.70;;;17.10;99.90;;;;;;5090195;28;20405;-80
2021/12/10 02:51:44;;;;;;;2.50;0.60;;;16.80;99.90;;;;;;5090444;28;20409;-85
2021/12/10 02:54:14;;;;;;;1.80;0.40;;;16.50;99.90;;;;;;5090889;28;20375;-86
2021/12/10 02:56:41;;;;;;;0.68;0.43;;;16.40;99.90;;;;;;5091115;28;20368;-86
2021/12/10 02:59:09;;;;;;;0.80;0.50;;;16.40;99.90;;;;;;5091135;28;20919;-83
2021/12/10 03:01:45;;;;;;;1.55;0.50;;;16.60;99.90;;;;;;5090620;28;20836;-83
2021/12/10 03:04:15;;;;;;;1.55;0.43;;;16.90;99.90;;;;;;5090556;28;20373;-88
2021/12/10 03:06:50;;;;;;;1.13;0.50;;;16.90;99.90;;;;;;5089810;28;20458;-85
2021/12/10 03:09:19;;;;;;;1.10;0.43;;;16.80;99.90;;;;;;5089909;28;20748;-84
2021/12/10 03:11:48;;;;;;;0.40;0.30;;;16.90;99.90;;;;;;5089723;28;20371;-83
2021/12/10 03:14:21;;;;;;;1.02;0.30;;;16.80;99.90;;;;;;5089889;28;20388;-87
2021/12/10 03:16:50;;;;;;;0.20;0.20;;;16.90;99.90;;;;;;5089675;28;20365;-84
2021/12/10 03:19:17;;;;;;;0.90;0.30;;;17.00;99.90;;;;;;5089512;28;20399;-87
2021/12/10 03:21:45;;;;;;;0.20;0.20;;;16.90;99.90;;;;;;5089382;28;20377;-82
2021/12/10 03:24:15;;;;;;;0.10;0.10;;;17.00;99.90;;;;;;5089747;28;20407;-86
2021/12/10 03:26:43;;;;;;;0.60;0.20;;;17.10;99.90;;;;;;5089828;28;20383;-81
2021/12/10 03:29:10;;;;;;;0.95;0.20;;;17.10;99.90;;;;;;5089315;28;20426;-80
2021/12/10 03:31:39;;;;;;;0.30;0.30;;;17.20;99.90;;;;;;5089285;28;20429;-84
2021/12/10 03:34:07;;;;;;;0.47;0.20;;;17.40;99.90;;;;;;5088367;28;20381;-82
2021/12/10 03:36:34;;;;;;;0.20;0.10;;;17.60;99.90;;;;;;5089385;28;20382;-86
2021/12/10 03:39:01;;;;;;;0.30;0.27;;;17.70;99.90;;;;;;5089496;28;20402;-84
2021/12/10 03:41:28;;;;;;;0.10;0.10;;;17.80;99.90;;;;;;5089792;28;20426;-85
2021/12/10 03:43:55;;;;;;;0.25;0.10;;;18.00;99.90;;;;;;5089396;28;20387;-84
2021/12/10 03:46:24;;;;;;;0.38;0.10;;;18.20;99.90;;;;;;5088998;28;20372;-80
2021/12/10 03:48:51;;;;;;;0.40;0.10;;;18.40;99.90;;;;;;5089049;28;20725;-85
2021/12/10 03:51:23;;;;;;;0.43;0.20;;;18.90;99.90;;;;;;5089540;28;20365;-82
2021/12/10 03:53:51;;;;;;;0.10;0.10;;;19.00;99.90;;;;;;5089946;28;20705;-80
2021/12/10 03:56:22;;;;;;;0.10;0.00;;;19.10;99.50;;;;;;5089939;28;20888;-83
2021/12/10 03:58:50;;;;;;;0.20;0.10;;;19.20;99.90;;;;;;5090432;28;20372;-82
2021/12/10 04:01:22;;;;;;;1.30;0.10;;;19.40;99.90;;;;;;5095087;28;20369;-84
2021/12/10 04:03:50;;;;;;;0.40;0.10;;;19.40;99.70;;;;;;5097063;28;20385;-81
2021/12/10 04:06:19;;;;;;;1.77;0.00;;;20.00;97.40;;;;;;5090996;28;20373;-83
2021/12/10 04:12:08;;;;;;;0.80;0.10;;;21.00;97.40;;;;;;5090484;28;20380;-82
2021/12/10 04:14:37;;;;;;;1.20;0.10;;;20.90;93.80;;;;;;5089346;28;20764;-83
2021/12/10 04:17:06;;;;;;;1.08;0.40;;;20.50;92.70;;;;;;5089020;28;20736;-82
2021/12/10 04:19:34;;;;;;;1.50;0.68;;;20.40;94.20;;;;;;5089106;28;20395;-83
2021/12/10 04:22:05;;;;;;;0.90;0.08;;;20.30;94.20;;;;;;5089064;28;20948;-84
2021/12/10 04:24:35;;;;;;;0.20;0.13;;;20.50;93.10;;;;;;5088934;28;20490;-82
2021/12/10 04:27:04;;;;;;;0.70;0.10;;;20.70;93.60;;;;;;5088646;28;20436;-82
2021/12/10 04:29:32;;;;;;;0.20;0.15;;;20.60;92.00;;;;;;5088728;28;20384;-81
2021/12/10 04:32:01;;;;;;;0.20;0.20;;;20.60;93.30;;;;;;5088897;28;20470;-84
2021/12/10 04:34:29;;;;;;;0.28;0.10;;;20.30;92.80;;;;;;5089076;28;20372;-82
2021/12/10 04:36:59;;;;;;;0.10;0.10;;;20.20;94.30;;;;;;5088895;28;20386;-82
2021/12/10 04:39:29;;;;;;;0.40;0.38;;;20.30;93.10;;;;;;5088713;28;20456;-81
2021/12/10 04:41:57;;;;;;;0.88;0.20;;;20.30;94.40;;;;;;5088517;28;20463;-82
2021/12/10 04:44:24;;;;;;;0.45;0.10;;;20.10;92.70;;;;;;5090419;28;20380;-81
2021/12/10 04:46:51;;;;;;;0.90;0.20;;;20.00;93.90;;;;;;5092915;28;20379;-83
2021/12/10 04:49:18;;;;;;;0.20;0.00;;;20.20;95.50;;;;;;5092600;28;20763;-85
2021/12/10 04:51:52;;;;;;;0.17;0.00;;;20.30;92.50;;;;;;5092681;28;20905;-83
2021/12/10 04:54:21;;;;;;;0.60;0.10;;;20.00;92.10;;;;;;5092633;28;20372;-80
2021/12/10 04:56:50;;;;;;;0.30;0.20;;;19.80;92.70;;;;;;5092666;28;20456;-85
2021/12/10 04:59:20;;;;;;;1.10;0.10;;;19.80;93.70;;;;;;5092631;28;20400;-83
2021/12/10 05:01:48;;;;;;;0.50;0.10;;;19.60;94.00;;;;;;5092303;28;20373;-83
2021/12/10 05:04:16;;;;;;;0.65;0.10;;;19.50;94.30;;;;;;5091122;28;20379;-82
2021/12/10 05:06:43;;;;;;;0.60;0.15;;;19.40;94.10;;;;;;5092327;28;20383;-84
2021/12/10 05:09:12;;;;;;;0.20;0.13;;;19.20;93.60;;;;;;5092320;28;20845;-82
2021/12/10 05:11:39;;;;;;;0.70;0.10;;;19.10;94.10;;;;;;5092192;28;20368;-85
2021/12/10 05:14:09;;;;;;;0.60;0.10;;;19.10;94.20;;;;;;5092771;28;20906;-84
2021/12/10 05:16:41;;;;;;;1.10;0.10;;;19.00;93.60;;;;;;5092205;28;20510;-83
2021/12/10 05:19:09;;;;;;;0.30;0.00;;;19.00;94.10;;;;;;5092293;28;20371;-84
2021/12/10 05:21:37;;;;;;;0.20;0.10;;;19.10;94.20;;;;;;5092350;28;20480;-82
2021/12/10 05:24:07;;;;;;;0.22;0.10;;;19.00;94.20;;;;;;5092162;28;20812;-81
2021/12/10 05:26:36;;;;;;;0.10;0.10;;;19.10;95.20;;;;;;5092069;28;20357;-80
2021/12/10 05:29:05;;;;;;;1.08;0.82;;;19.00;95.00;;;;;;5091979;28;20433;-84
2021/12/10 05:31:33;;;;;;;1.05;0.15;;;19.00;93.40;;;;;;5092397;28;20372;-86
2021/12/10 05:34:00;;;;;;;0.38;0.13;;;19.00;94.80;;;;;;5091934;28;20376;-84
2021/12/10 05:36:27;;;;;;;0.10;0.10;;;19.20;94.10;;;;;;5091813;28;20376;-84
2021/12/10 05:38:55;;;;;;;0.90;0.10;;;19.30;92.80;;;;;;5091433;28;20429;-83
2021/12/10 05:41:22;;;;;;;0.40;0.10;;;19.40;94.30;;;;;;5091677;28;20373;-85
2021/12/10 05:43:49;;;;;;;0.25;0.00;;;19.20;93.40;;;;;;5091455;28;20384;-86
2021/12/10 05:46:17;;;;;;;0.08;0.00;;;19.20;93.60;;;;;;5091388;28;20373;-85
2021/12/10 05:48:45;;;;;;;0.40;0.10;;;19.80;93.40;;;;;;5091479;28;20404;-85
2021/12/10 05:51:13;;;;;;;0.20;0.10;;;19.00;93.70;;;;;;5092182;28;20358;-88
2021/12/10 05:53:42;;;;;;;1.80;0.10;;;19.00;94.50;;;;;;5091898;28;20381;-87
2021/12/10 05:56:10;;;;;;;0.30;0.10;;;19.10;94.80;;;;;;5091543;28;20384;-86
2021/12/10 05:58:37;;;;;;;0.25;0.10;;;19.10;94.60;;;;;;5091464;28;20433;-87
2021/12/10 06:01:10;;;;;;;1.25;0.10;;;19.00;94.60;;;;;;5091723;28;20400;-90
2021/12/10 06:03:40;;;;;;;0.10;0.05;;;19.10;94.90;;;;;;5092233;28;20372;-87
2021/12/10 06:06:08;;;;;;;0.73;0.10;;;19.30;94.80;;;;;;5091814;28;20373;-85
2021/12/10 06:08:36;;;;;;;0.88;0.20;;;19.20;94.20;;;;;;5091400;28;20483;-89
2021/12/10 06:11:06;;;;;;;0.50;0.10;;;19.10;94.10;;;;;;5089937;28;20715;-85
2021/12/10 06:13:34;;;;;;;0.52;0.20;;;18.90;93.70;;;;;;5091447;28;20427;-84
2021/12/10 06:16:01;;;;;;;0.80;0.13;;;18.90;94.20;;;;;;5091231;28;20368;-85
2021/12/10 06:18:28;;;;;;;0.10;0.10;;;18.70;94.50;;;;;;5091014;28;20380;-85
2021/12/10 06:20:56;;;;;;;0.20;0.10;;;18.60;95.20;;;;;;5090958;28;20376;-83
2021/12/10 06:23:24;;;;;;;0.80;0.10;;;18.60;95.00;;;;;;5091067;28;20455;-85
2021/12/10 06:25:51;;;;;;;0.35;0.10;;;18.60;95.40;;;;;;5090800;28;20897;-84
2021/12/10 06:28:19;;;;;;;0.80;0.15;;;18.50;96.00;;;;;;5090644;28;20495;-87
2021/12/10 06:30:48;;;;;;;0.37;0.10;;;18.50;96.30;;;;;;5090643;28;20459;-85
2021/12/10 06:33:18;;;;;;;1.30;0.10;;;18.50;96.50;;;;;;5090747;28;20383;-85
2021/12/10 06:35:49;;;;;;;1.67;0.10;;;18.50;95.60;;;;;;5089272;28;20384;-85
2021/12/10 06:38:17;;;;;;;0.23;0.10;;;18.60;96.20;;;;;;5090236;28;20968;-84
2021/12/10 06:40:45;;;;;;;0.20;0.10;;;18.50;96.80;;;;;;5090547;28;20872;-86
2021/12/10 06:43:14;;;;;;;0.40;0.10;;;18.10;98.00;;;;;;5090644;28;20373;-82
2021/12/10 06:45:43;;;;;;;0.08;0.08;;;18.00;99.90;;;;;;5091009;28;20388;-83
2021/12/10 06:48:11;;;;;;;0.40;0.10;;;17.90;99.90;;;;;;5088927;28;20417;-85
2021/12/10 06:50:48;;;;;;;0.10;0.10;;;18.00;99.80;;;;;;5090485;28;20376;-84
2021/12/10 06:53:19;;;;;;;0.63;0.10;;;18.00;99.90;;;;;;5090651;28;20843;-82
2021/12/10 06:55:47;;;;;;;0.80;0.10;;;17.80;99.90;;;;;;5090344;28;20384;-82
2021/12/10 06:58:15;;;;;;;4.53;0.20;;;17.80;99.90;;;;;;5090587;28;20369;-82
2021/12/10 07:00:47;;;;;;;0.10;0.10;;;17.80;99.90;;;;;;5090433;28;20437;-80
2021/12/10 07:03:19;;;;;;;2.10;0.10;;;17.90;99.90;;;;;;5090413;28;20368;-86
2021/12/10 07:05:46;;;;;;;0.85;0.20;;;17.90;99.90;;;;;;5090111;28;20352;-85
2021/12/10 07:08:14;;;;;;;0.90;0.10;;;18.00;99.90;;;;;;5089122;28;20923;-83
2021/12/10 07:10:42;;;;;;;0.20;0.10;;;18.00;99.90;;;;;;5093870;28;20471;-86
2021/12/10 07:13:09;;;;;;;0.08;0.08;;;17.90;99.90;;;;;;5092218;28;20901;-83
2021/12/10 07:15:39;;;;;;;0.10;0.10;;;17.80;99.90;;;;;;5093306;28;20441;-86
2021/12/10 07:18:07;;;;;;;0.80;0.10;;;17.80;99.90;;;;;;5091493;28;20369;-86
2021/12/10 07:20:34;;;;;;;0.10;0.10;;;17.80;99.90;;;;;;5092009;28;20368;-88
2021/12/10 07:23:01;;;;;;;0.10;0.10;;;17.70;99.90;;;;;;5090314;28;20388;-87
2021/12/10 07:25:29;;;;;;;0.20;0.10;;;17.50;99.90;;;;;;5090585;28;20368;-84
2021/12/10 07:27:56;;;;;;;0.10;0.10;;;17.00;99.90;;;;;;5090608;28;20471;-87
2021/12/10 07:30:27;;;;;;;0.20;0.20;;;16.50;99.90;;;;;;5090320;28;20380;-83
2021/12/10 07:32:55;;;;;;;1.05;0.20;;;16.20;99.90;;;;;;5090100;28;20357;-86
2021/12/10 07:35:22;;;;;;;0.10;0.10;;;16.00;99.90;;;;;;5089538;28;20369;-85
2021/12/10 07:37:50;;;;;;;1.20;0.20;;;15.70;99.90;;;;;;5090066;28;20373;-83
2021/12/10 07:40:21;;;;;;;0.80;0.20;;;15.50;99.90;;;;;;5093610;28;20380;-84
2021/12/10 07:42:49;;;;;;;0.20;0.10;;;15.40;99.90;;;;;;5091150;28;20379;-82
2021/12/10 07:45:17;;;;;;;0.50;0.10;;;15.30;99.90;;;;;;5090678;28;20452;-85
2021/12/10 07:47:46;;;;;;;0.10;0.10;;;15.20;99.90;;;;;;5089692;28;20368;-83
2021/12/10 07:50:23;;;;;;;0.17;0.17;;;15.20;99.90;;;;;;5090120;28;20369;-82
2021/12/10 07:52:56;;;;;;;1.20;0.40;;;15.20;99.90;;;;;;5089927;28;20913;-79
2021/12/10 07:55:29;;;;;;;0.30;0.30;;;15.10;99.90;;;;;;5089402;28;20369;-80
2021/12/10 07:57:57;;;;;;;0.35;0.30;;;15.20;99.90;;;;;;5089695;28;20386;-79
2021/12/10 08:00:27;;;;;;;0.88;0.20;;;15.20;99.90;;;;;;5089459;28;20412;-79
2021/12/10 08:02:54;;;;;;;0.20;0.20;;;15.30;99.90;;;;;;5089897;28;20380;-84
2021/12/10 08:05:22;;;;;;;0.30;0.30;;;15.40;99.90;;;;;;5089325;28;20927;-84
2021/12/10 08:07:51;;;;;;;1.30;0.30;;;15.50;99.90;;;;;;5089407;28;20372;-82
2021/12/10 08:10:18;;;;;;;1.65;0.30;;;15.60;99.90;;;;;;5089084;28;20405;-80
2021/12/10 08:12:46;;;;;;;0.40;0.40;;;15.60;99.90;;;;;;5089366;28;20364;-90
2021/12/10 08:15:13;;;;;;;0.75;0.30;;;15.60;99.90;;;;;;5090733;28;20393;-85
2021/12/10 08:17:42;;;;;;;0.30;0.30;;;15.60;99.90;;;;;;5089001;28;20879;-83
2021/12/10 08:20:12;;;;;;;0.30;0.25;;;15.60;99.90;;;;;;5089094;28;20372;-84
2021/12/10 08:22:40;;;;;;;0.20;0.20;;;15.70;99.90;;;;;;5089105;28;20422;-84
2021/12/10 08:25:08;;;;;;;0.30;0.30;;;15.80;99.90;;;;;;5094737;28;20369;-81
2021/12/10 08:27:37;;;;;;;0.70;0.40;;;15.80;99.90;;;;;;5096049;28;20551;-85
2021/12/10 08:30:11;;;;;;;0.50;0.50;;;15.80;99.90;;;;;;5097556;28;21347;-84
2021/12/10 08:32:39;;;;;;;1.60;0.40;;;15.80;99.90;;;;;;5093657;28;20388;-82
2021/12/10 08:35:10;;;;;;;0.47;0.47;;;15.90;99.90;;;;;;5091018;28;20381;-81
2021/12/10 08:37:38;;;;;;;0.73;0.40;;;15.80;99.90;;;;;;5090674;28;20790;-80
2021/12/10 08:40:08;;;;;;;0.27;0.27;;;15.90;99.90;;;;;;5090231;28;20382;-80
2021/12/10 08:42:35;;;;;;;0.50;0.30;;;15.90;99.90;;;;;;5089409;28;20365;-80
2021/12/10 08:45:02;;;;;;;0.30;0.30;;;16.00;99.90;;;;;;5090089;28;20403;-80
2021/12/10 08:47:29;;;;;;;1.20;0.30;;;16.00;99.90;;;;;;5090460;28;20367;-80
2021/12/10 08:49:56;;;;;;;0.30;0.20;;;16.00;99.90;;;;;;5089923;28;20408;-84
2021/12/10 08:52:24;;;;;;;0.52;0.30;;;16.10;99.90;;;;;;5090546;28;20415;-84
2021/12/10 08:54:51;;;;;;;0.32;0.28;;;16.00;99.90;;;;;;5089012;28;20429;-80
2021/12/10 08:57:18;;;;;;;0.30;0.30;;;16.10;99.90;;;;;;5088885;28;20795;-83
2021/12/10 08:59:45;;;;;;;0.50;0.30;;;16.00;99.90;;;;;;5089112;28;20360;-85
2021/12/10 09:02:15;;;;;;;0.77;0.30;;;15.90;99.90;;;;;;5089387;28;20801;-81
2021/12/10 09:04:42;;;;;;;0.60;0.40;;;16.00;99.90;;;;;;5088810;28;20447;-82
2021/12/10 09:07:14;;;;;;;0.80;0.30;;;16.00;99.90;;;;;;5088950;28;20408;-82
2021/12/10 09:09:46;;;;;;;1.55;0.30;;;16.00;99.90;;;;;;5088614;28;20400;-81
2021/12/10 09:12:19;;;;;;;0.95;0.30;;;16.00;99.90;;;;;;5088194;28;20365;-81
2021/12/10 09:14:50;;;;;;;0.30;0.20;;;16.00;99.90;;;;;;5088276;28;20376;-81
2021/12/10 09:17:22;;;;;;;0.28;0.25;;;16.00;99.90;;;;;;5088150;28;20356;-87
2021/12/10 09:19:52;;;;;;;0.35;0.20;;;16.00;99.90;;;;;;5088583;28;20452;-81
2021/12/10 09:22:20;;;;;;;0.25;0.10;;;16.10;99.90;;;;;;5088032;28;20422;-83
2021/12/10 09:24:48;;;;;;;1.80;0.30;;;16.10;99.90;;;;;;5088218;28;20392;-77
2021/12/10 09:27:17;;;;;;;1.50;0.20;;;16.10;99.90;;;;;;5088075;28;20377;-81
2021/12/10 09:29:46;;;;;;;1.85;0.30;;;16.00;99.90;;;;;;5088022;28;20408;-84
2021/12/10 09:32:16;;;;;;;0.50;0.40;;;16.00;99.90;;;;;;5090479;28;20365;-80
2021/12/10 09:34:44;;;;;;;2.55;0.40;;;16.00;99.90;;;;;;5091749;28;20360;-84
2021/12/10 09:37:13;;;;;;;2.00;0.30;;;16.10;99.90;;;;;;5091590;28;20658;-84
2021/12/10 09:39:40;;;;;;;0.55;0.30;;;16.00;99.90;;;;;;5091693;28;20369;-83
2021/12/10 09:42:08;;;;;;;2.72;0.47;;;16.00;99.90;;;;;;5092135;28;20368;-86
2021/12/10 09:44:37;;;;;;;1.20;0.60;;;16.10;99.90;;;;;;5091623;28;20376;-84
2021/12/10 09:47:10;;;;;;;2.30;0.30;;;16.10;99.90;;;;;;5091549;28;20463;-84
2021/12/10 09:49:38;;;;;;;0.77;0.30;;;16.20;99.90;;;;;;5091613;28;20404;-83
2021/12/10 09:52:07;;;;;;;0.65;0.30;;;16.10;99.90;;;;;;5091878;28;20372;-82
2021/12/10 09:54:35;;;;;;;0.52;0.20;;;16.20;99.90;;;;;;5091490;28;20407;-85
2021/12/10 09:57:11;;;;;;;1.73;0.20;;;16.20;99.90;;;;;;5091515;28;20377;-83
2021/12/10 09:59:41;;;;;;;1.45;0.25;;;16.20;99.90;;;;;;5091494;28;20743;-83
2021/12/10 10:02:09;;;;;;;0.55;0.40;;;16.20;99.90;;;;;;5091908;28;20380;-83
2021/12/10 10:04:38;;;;;;;0.30;0.30;;;16.20;99.90;;;;;;5091338;28;20376;-83
2021/12/10 10:07:13;;;;;;;0.82;0.68;;;16.20;99.90;;;;;;5091168;28;20369;-81
2021/12/10 10:09:43;;;;;;;0.80;0.40;;;16.10;99.90;;;;;;5091354;28;20405;-83
2021/12/10 10:12:14;;;;;;;0.30;0.20;;;16.20;99.90;;;;;;5091095;28;20361;-83
2021/12/10 10:14:41;;;;;;;0.10;0.10;;;16.10;99.90;;;;;;5090264;28;20376;-85
2021/12/10 10:17:11;;;;;;;0.22;0.20;;;16.20;99.90;;;;;;5091896;28;20437;-83
2021/12/10 10:19:41;;;;;;;0.32;0.20;;;16.10;99.90;;;;;;5093856;28;20682;-84
2021/12/10 10:22:11;;;;;;;0.30;0.20;;;16.20;99.90;;;;;;5092311;28;20373;-86
2021/12/10 10:24:38;;;;;;;0.20;0.20;;;16.10;99.90;;;;;;5090991;28;20856;-86
2021/12/10 10:27:19;;;;;;;0.10;0.10;;;16.10;99.90;;;;;;5090916;28;20383;-85
2021/12/10 10:29:52;;;;;;;1.10;0.20;;;16.10;99.90;;;;;;5091028;28;20783;-82
2021/12/10 10:32:32;;;;;;;0.28;0.20;;;16.10;99.90;;;;;;5091545;28;20855;-84
2021/12/10 10:35:13;;;;;;;0.40;0.10;;;16.10;99.90;;;;;;5090745;28;20375;-82
2021/12/10 10:37:40;;;;;;;0.20;0.20;;;16.00;99.90;;;;;;5090895;28;20850;-83
2021/12/10 10:40:10;;;;;;;0.70;0.40;;;15.90;99.90;;;;;;5089537;28;20455;-83
2021/12/10 10:42:37;;;;;;;1.40;0.30;;;15.90;99.90;;;;;;5090593;28;20372;-84
2021/12/10 10:45:09;;;;;;;0.40;0.40;;;15.90;99.90;;;;;;5090685;28;20905;-84
2021/12/10 10:47:36;;;;;;;1.65;0.50;;;15.80;99.90;;;;;;5091042;28;20408;-84
2021/12/10 10:50:18;;;;;;;0.90;0.40;;;15.80;99.90;;;;;;5090360;28;20879;-85
2021/12/10 10:52:52;;;;;;;1.25;0.20;;;15.90;99.90;;;;;;5090453;28;20410;-85
2021/12/10 10:55:33;;;;;;;0.20;0.10;;;15.90;99.90;;;;;;5090473;28;20365;-85
2021/12/10 10:58:06;;;;;;;0.95;0.22;;;15.90;99.90;;;;;;5090392;28;20361;-82
2021/12/10 11:00:46;;;;;;;1.63;0.57;;;16.00;99.90;;;;;;5090226;28;20404;-84
2021/12/10 11:03:18;;;;;;;0.52;0.40;;;15.90;99.90;;;;;;5090007;28;20364;-82
2021/12/10 11:05:55;;;;;;;2.00;0.20;;;16.00;99.90;;;;;;5090115;28;20584;-84
2021/12/10 11:08:32;;;;;;;0.30;0.30;;;16.10;99.90;;;;;;5089995;28;20476;-82
2021/12/10 11:11:15;;;;;;;1.38;0.30;;;16.10;99.90;;;;;;5089908;28;20376;-82
2021/12/10 11:13:46;;;;;;;0.80;0.40;;;16.20;99.90;;;;;;5090297;28;20677;-78
2021/12/10 11:16:18;;;;;;;1.10;0.20;;;16.20;99.90;;;;;;5089797;28;20372;-83
2021/12/10 11:19:01;;;;;;;0.30;0.10;;;16.20;99.90;;;;;;5090200;28;20882;-82
2021/12/10 11:21:43;;;;;;;0.30;0.10;;;16.20;99.90;;;;;;5090004;28;20373;-86
2021/12/10 11:24:25;;;;;;;0.45;0.45;;;16.30;99.90;;;;;;5088594;28;20427;-82
2021/12/10 11:26:57;;;;;;;1.55;0.77;;;16.30;99.90;;;;;;5089917;28;20408;-83
2021/12/10 11:29:55;;;;;;;1.30;0.50;;;16.40;99.90;;;;;;5089802;28;20689;-81
2021/12/10 11:32:28;;;;;;;0.52;0.20;;;16.50;99.90;;;;;;5090603;28;20456;-85
2021/12/10 11:35:15;;;;;;;0.93;0.43;;;16.60;99.90;;;;;;5089624;28;20370;-84
2021/12/10 11:38:00;;;;;;;1.35;0.70;;;16.60;99.90;;;;;;5089898;28;20901;-82
2021/12/10 11:40:42;;;;;;;0.70;0.70;;;16.60;99.90;;;;;;5089661;28;20724;-82
2021/12/10 11:48:51;;;;;;;1.40;0.80;;;16.60;99.90;;;;;;5089107;28;20408;-80
2021/12/10 11:51:31;;;;;;;1.33;0.80;;;16.60;99.90;;;;;;5089201;28;20364;-80
2021/12/10 11:54:02;;;;;;;2.38;0.40;;;16.50;99.90;;;;;;5088587;28;20373;-83
2021/12/10 11:56:40;;;;;;;0.70;0.20;;;16.50;99.90;;;;;;5089236;28;20473;-85
2021/12/10 11:59:13;;;;;;;1.20;0.30;;;16.50;99.90;;;;;;5089225;28;20368;-80
2021/12/10 12:02:04;;;;;;;2.00;0.60;;;16.60;99.90;;;;;;5088965;28;21006;-80
2021/12/10 12:04:52;;;;;;;1.50;0.22;;;16.60;99.90;;;;;;5089510;28;20426;-85
2021/12/10 12:07:41;;;;;;;0.20;0.20;;;16.60;99.90;;;;;;5089458;28;20365;-81
2021/12/10 12:10:27;;;;;;;0.20;0.20;;;16.70;99.90;;;;;;5090012;28;20465;-80
2021/12/10 12:12:54;;;;;;;0.85;0.20;;;16.70;99.90;;;;;;5089459;28;20369;-85
2021/12/10 12:15:31;;;;;;;0.50;0.20;;;16.70;99.90;;;;;;5089015;28;20387;-83
2021/12/10 12:18:10;;;;;;;0.17;0.10;;;16.70;99.90;;;;;;5088122;28;20795;-79
2021/12/10 12:20:56;;;;;;;0.40;0.10;;;16.60;99.90;;;;;;5088836;28;20455;-84
2021/12/10 12:26:23;;;;;;;0.97;0.10;;;16.60;99.90;;;;;;5088789;28;20368;-83
2021/12/10 12:28:55;;;;;;;0.52;0.13;;;16.50;99.90;;;;;;5087143;28;20903;-85
2021/12/10 12:31:28;;;;;;;0.30;0.10;;;16.60;99.90;;;;;;5089275;28;20403;-86
2021/12/10 12:33:58;;;;;;;1.20;0.20;;;16.50;99.90;;;;;;5088878;28;20368;-80
2021/12/10 12:36:53;;;;;;;0.35;0.10;;;16.50;99.90;;;;;;5089094;28;20422;-83
2021/12/10 12:39:57;;;;;;;0.10;0.10;;;16.60;99.90;;;;;;5088967;28;20856;-87
2021/12/10 12:42:28;;;;;;;0.20;0.10;;;16.70;99.90;;;;;;5082364;28;20383;-84
2021/12/10 12:44:58;;;;;;;1.52;0.32;;;16.70;99.90;;;;;;5087836;28;20394;-84
2021/12/10 12:47:36;;;;;;;2.13;0.30;;;17.20;99.90;;;;;;5092962;28;20361;-85
2021/12/10 12:50:06;;;;;;;0.30;0.30;;;16.60;99.90;;;;;;5094727;28;20399;-82
2021/12/10 12:52:47;;;;;;;0.88;0.10;;;16.50;99.90;;;;;;5097563;28;20411;-85
2021/12/10 12:55:23;;;;;;;1.40;0.20;;;16.50;99.90;;;;;;5091895;28;20365;-86
2021/12/10 12:58:15;;;;;;;0.70;0.20;;;16.50;99.90;;;;;;5090839;28;20401;-87
2021/12/10 13:00:46;;;;;;;2.55;0.40;;;16.40;99.90;;;;;;5090029;28;20369;-87
2021/12/10 13:03:25;;;;;;;0.20;0.20;;;16.30;99.90;;;;;;5089392;28;20357;-87
2021/12/10 13:05:57;;;;;;;1.23;0.30;;;16.20;99.90;;;;;;5091131;28;20396;-84
2021/12/10 13:08:30;;;;;;;1.50;0.60;;;16.10;99.90;;;;;;5092966;28;20417;-86
2021/12/10 13:11:09;;;;;;;1.38;0.40;;;16.10;99.90;;;;;;5092757;28;20380;-86
2021/12/10 13:13:44;;;;;;;2.10;0.30;;;16.20;99.90;;;;;;5093296;28;20371;-83
2021/12/10 13:16:28;;;;;;;1.70;0.40;;;16.10;99.90;;;;;;5092506;28;20474;-88
2021/12/10 13:18:55;;;;;;;0.67;0.50;;;16.00;99.90;;;;;;5092471;28;20367;-86
2021/12/10 13:21:22;;;;;;;2.30;0.65;;;16.00;99.90;;;;;;5092492;28;20384;-87
2021/12/10 13:23:49;;;;;;;2.60;0.70;;;16.00;99.90;;;;;;5092460;28;20364;-84
2021/12/10 13:26:16;;;;;;;1.65;0.60;;;16.00;99.90;;;;;;5092334;28;20388;-86
2021/12/10 13:28:43;;;;;;;0.50;0.50;;;16.00;99.90;;;;;;5091909;28;20449;-81